createdAt,value
2023-01-03T00:02:23.026Z,76.81
2023-01-03T00:04:50.451Z,76.34
2023-01-03T00:07:33.814Z,76.70
2023-01-03T00:10:03.003Z,76.91
2023-01-03T00:12:32.198Z,77.35
2023-01-03T00:15:00.285Z,77.07
2023-01-03T00:17:28.722Z,77.43
2023-01-03T00:19:55.724Z,77.26
2023-01-03T00:22:22.941Z,76.65
2023-01-03T00:24:51.838Z,76.73
2023-01-03T00:27:19.265Z,76.76
2023-01-03T00:29:46.190Z,76.54
2023-01-03T00:32:13.770Z,76.84
2023-01-03T00:34:44.356Z,76.94
2023-01-03T00:37:12.629Z,77.51
2023-01-03T00:39:39.675Z,77.45
2023-01-03T00:42:07.512Z,77.52
2023-01-03T00:44:34.530Z,77.51
2023-01-03T00:47:02.255Z,77.54
2023-01-03T00:49:29.305Z,77.71
2023-01-03T00:51:57.073Z,77.56
2023-01-03T00:54:24.347Z,77.84
2023-01-03T00:56:52.208Z,77.85
2023-01-03T00:59:20.881Z,78.10
2023-01-03T01:01:54.298Z,78.29
2023-01-03T01:04:28.981Z,78.11
2023-01-03T01:06:59.553Z,78.22
2023-01-03T01:09:37.163Z,78.25
2023-01-03T01:12:06.932Z,77.76
2023-01-03T01:14:34.035Z,77.59
2023-01-03T01:17:04.542Z,77.74
2023-01-03T01:19:49.593Z,77.93
2023-01-03T01:22:16.765Z,78.12
2023-01-03T01:24:43.651Z,77.29
2023-01-03T01:27:10.933Z,77.42
2023-01-03T01:29:38.808Z,77.01
2023-01-03T01:32:06.590Z,77.06
2023-01-03T01:34:33.867Z,77.40
2023-01-03T01:37:01.244Z,77.09
2023-01-03T01:39:29.553Z,77.06
2023-01-03T01:42:20.737Z,76.92
2023-01-03T01:44:53.349Z,77.03
2023-01-03T01:47:23.647Z,76.86
2023-01-03T01:50:12.492Z,76.93
2023-01-03T01:52:54.673Z,76.37
2023-01-03T01:55:23.666Z,76.08
2023-01-03T01:57:51.152Z,75.92
2023-01-03T02:00:18.253Z,76.01
2023-01-03T02:02:49.783Z,76.32
2023-01-03T02:05:18.934Z,76.54
2023-01-03T02:07:50.061Z,76.29
2023-01-03T02:10:21.539Z,76.34
2023-01-03T02:13:21.572Z,76.49
2023-01-03T02:16:13.118Z,76.38
2023-01-03T02:18:48.696Z,76.48
2023-01-03T02:21:40.728Z,76.12
2023-01-03T02:24:42.847Z,75.95
2023-01-03T02:27:34.745Z,75.64
2023-01-03T02:30:23.636Z,76.47
2023-01-03T02:33:09.178Z,76.29
2023-01-03T02:35:46.454Z,76.54
2023-01-03T02:38:26.247Z,76.92
2023-01-03T02:41:06.568Z,76.91
2023-01-03T02:43:38.878Z,77.17
2023-01-03T02:46:21.819Z,77.12
2023-01-03T02:48:56.804Z,77.52
2023-01-03T02:51:33.947Z,77.40
2023-01-03T02:54:03.818Z,77.15
2023-01-03T02:56:37.682Z,77.45
2023-01-03T02:59:12.313Z,77.94
2023-01-03T03:01:45.373Z,78.00
2023-01-03T03:04:13.911Z,78.20
2023-01-03T03:06:56.840Z,78.40
2023-01-03T03:09:24.488Z,78.97
2023-01-03T03:12:12.652Z,79.64
2023-01-03T03:14:45.585Z,80.20
2023-01-03T03:17:22.202Z,80.32
2023-01-03T03:20:14.763Z,80.09
2023-01-03T03:23:09.308Z,80.87
2023-01-03T03:25:43.658Z,80.78
2023-01-03T03:28:35.852Z,80.62
2023-01-03T03:31:36.973Z,81.45
2023-01-03T03:34:07.817Z,81.86
2023-01-03T03:36:40.735Z,82.93
2023-01-03T03:39:32.714Z,83.54
2023-01-03T03:42:41.365Z,84.24
2023-01-03T03:45:24.329Z,84.71
2023-01-03T03:48:23.255Z,84.52
2023-01-03T03:51:10.600Z,84.86
2023-01-03T03:53:40.092Z,84.94
2023-01-03T03:56:11.833Z,84.40
2023-01-03T03:58:50.319Z,84.52
2023-01-03T04:01:22.280Z,84.26
2023-01-03T04:03:52.119Z,84.58
2023-01-03T04:06:44.806Z,84.47
2023-01-03T04:09:12.308Z,84.41
2023-01-03T04:11:39.586Z,84.25
2023-01-03T04:14:06.496Z,83.92
2023-01-03T04:16:33.920Z,83.85
2023-01-03T04:19:00.849Z,83.61
2023-01-03T04:21:45.963Z,83.72
2023-01-03T04:24:13.158Z,84.27
2023-01-03T04:26:40.065Z,83.79
2023-01-03T04:29:07.300Z,83.48
2023-01-03T04:31:34.260Z,84.27
2023-01-03T04:34:01.743Z,84.50
2023-01-03T04:36:28.653Z,85.13
2023-01-03T04:38:56.212Z,85.70
2023-01-03T04:41:24.201Z,86.14
2023-01-03T04:44:01.891Z,86.21
2023-01-03T04:46:37.233Z,86.52
2023-01-03T04:49:07.519Z,86.84
2023-01-03T04:51:35.318Z,87.35
2023-01-03T04:54:03.923Z,87.65
2023-01-03T04:56:35.573Z,87.64
2023-01-03T04:59:03.188Z,87.70
2023-01-03T05:01:30.371Z,87.09
2023-01-03T05:04:00.130Z,87.07
2023-01-03T05:06:28.360Z,86.08
2023-01-03T05:08:56.169Z,85.41
2023-01-03T05:11:23.297Z,84.97
2023-01-03T05:13:50.495Z,84.90
2023-01-03T05:16:17.496Z,84.34
2023-01-03T05:18:45.138Z,84.10
2023-01-03T05:21:36.802Z,84.08
2023-01-03T05:24:23.031Z,84.21
2023-01-03T05:26:51.678Z,84.11
2023-01-03T05:29:21.123Z,84.15
2023-01-03T05:31:48.803Z,84.32
2023-01-03T05:34:16.184Z,84.54
2023-01-03T05:37:01.611Z,84.68
2023-01-03T05:39:28.981Z,84.96
2023-01-03T05:42:00.405Z,85.50
2023-01-03T05:44:33.179Z,85.27
2023-01-03T05:47:01.838Z,85.22
2023-01-03T05:49:29.242Z,85.17
2023-01-03T05:51:56.361Z,85.02
2023-01-03T05:54:23.666Z,85.15
2023-01-03T05:56:51.318Z,85.52
2023-01-03T05:59:19.045Z,86.01
2023-01-03T06:01:46.058Z,85.92
2023-01-03T06:04:13.360Z,86.79
2023-01-03T06:06:40.375Z,86.90
2023-01-03T06:09:07.926Z,87.24
2023-01-03T06:11:34.938Z,87.08
2023-01-03T06:14:03.612Z,87.23
2023-01-03T06:16:49.399Z,86.81
2023-01-03T06:19:16.716Z,86.83
2023-01-03T06:21:43.600Z,87.13
2023-01-03T06:24:11.365Z,86.75
2023-01-03T06:26:38.448Z,86.23
2023-01-03T06:29:06.404Z,84.84
2023-01-03T06:31:34.047Z,84.92
2023-01-03T06:34:01.505Z,84.69
2023-01-03T06:36:32.061Z,84.55
2023-01-03T06:38:59.307Z,84.09
2023-01-03T06:41:26.765Z,83.68
2023-01-03T06:43:55.424Z,83.81
2023-01-03T06:46:41.609Z,82.67
2023-01-03T06:49:35.827Z,82.24
2023-01-03T06:52:23.885Z,82.30
2023-01-03T06:54:51.236Z,82.08
2023-01-03T06:57:26.338Z,82.48
2023-01-03T06:59:55.347Z,81.90
2023-01-03T07:02:22.383Z,82.09
2023-01-03T07:04:49.755Z,81.61
2023-01-03T07:07:16.773Z,80.73
2023-01-03T07:09:43.945Z,81.31
2023-01-03T07:12:29.508Z,81.50
2023-01-03T07:14:56.803Z,81.20
2023-01-03T07:17:24.179Z,81.64
2023-01-03T07:19:51.538Z,81.33
2023-01-03T07:22:18.422Z,81.58
2023-01-03T07:24:45.777Z,81.59
2023-01-03T07:27:13.112Z,81.80
2023-01-03T07:29:40.355Z,82.44
2023-01-03T07:32:07.268Z,82.83
2023-01-03T07:34:34.483Z,82.38
2023-01-03T07:37:01.472Z,82.66
2023-01-03T07:39:29.015Z,82.87
2023-01-03T07:42:15.064Z,83.13
2023-01-03T07:44:42.227Z,83.02
2023-01-03T07:47:09.155Z,83.39
2023-01-03T07:49:36.670Z,83.86
2023-01-03T07:52:03.820Z,84.32
2023-01-03T07:54:31.044Z,84.98
2023-01-03T07:56:58.333Z,85.59
2023-01-03T07:59:25.537Z,85.59
2023-01-03T08:01:52.511Z,85.72
2023-01-03T08:04:20.081Z,86.14
2023-01-03T08:06:47.031Z,86.52
2023-01-03T08:09:33.037Z,86.22
2023-01-03T08:12:18.681Z,86.44
2023-01-03T08:14:45.888Z,86.73
2023-01-03T08:17:12.814Z,86.90
2023-01-03T08:19:45.363Z,86.73
2023-01-03T08:22:12.841Z,86.81
2023-01-03T08:24:40.028Z,87.10
2023-01-03T08:27:06.971Z,87.48
2023-01-03T08:29:34.445Z,87.71
2023-01-03T08:32:03.063Z,87.24
2023-01-03T08:34:36.280Z,87.66
2023-01-03T08:37:10.339Z,87.69
2023-01-03T08:39:44.332Z,87.88
2023-01-03T08:42:15.525Z,87.75
2023-01-03T08:44:45.352Z,86.96
2023-01-03T08:47:14.982Z,84.78
2023-01-03T08:49:42.810Z,84.66
2023-01-03T08:52:09.878Z,83.09
2023-01-03T08:54:37.280Z,82.72
2023-01-03T08:57:04.403Z,82.69
2023-01-03T08:59:32.067Z,81.85
2023-01-03T09:02:00.140Z,81.87
2023-01-03T09:04:27.647Z,81.56
2023-01-03T09:06:54.880Z,81.01
2023-01-03T09:09:22.207Z,80.34
2023-01-03T09:11:49.268Z,80.22
2023-01-03T09:14:16.678Z,78.92
2023-01-03T09:16:48.753Z,78.65
2023-01-03T09:19:16.830Z,77.29
2023-01-03T09:21:43.928Z,78.10
2023-01-03T09:24:11.146Z,77.01
2023-01-03T09:26:38.076Z,76.04
2023-01-03T09:29:05.324Z,76.12
2023-01-03T09:31:34.959Z,76.48
2023-01-03T09:34:04.728Z,76.04
2023-01-03T09:36:32.282Z,75.32
2023-01-03T09:38:59.558Z,74.34
2023-01-03T09:41:27.907Z,73.12
2023-01-03T09:44:04.837Z,73.18
2023-01-03T09:46:33.356Z,72.89
2023-01-03T09:49:02.403Z,72.10
2023-01-03T09:51:52.979Z,71.21
2023-01-03T09:54:58.522Z,71.16
2023-01-03T09:57:49.184Z,70.29
2023-01-03T10:00:46.409Z,69.90
2023-01-03T10:03:38.214Z,70.42
2023-01-03T10:06:20.458Z,70.86
2023-01-03T10:08:57.447Z,69.62
2023-01-03T10:11:39.307Z,69.03
2023-01-03T10:14:58.300Z,68.61
2023-01-03T10:17:46.637Z,67.85
2023-01-03T10:20:28.106Z,68.51
2023-01-03T10:22:58.506Z,68.16
2023-01-03T10:25:28.229Z,68.21
2023-01-03T10:28:02.075Z,67.89
2023-01-03T10:30:38.475Z,67.79
2023-01-03T10:33:27.996Z,66.27
2023-01-03T10:35:56.622Z,65.73
2023-01-03T10:38:25.801Z,65.45
2023-01-03T10:40:58.522Z,65.28
2023-01-03T10:43:33.340Z,65.07
2023-01-03T10:46:13.936Z,64.45
2023-01-03T10:51:50.983Z,63.16
2023-01-03T10:54:18.242Z,63.04
2023-01-03T10:56:49.197Z,62.00
2023-01-03T10:59:27.981Z,61.44
2023-01-03T11:01:59.931Z,61.98
2023-01-03T11:04:31.680Z,61.04
2023-01-03T11:07:03.973Z,60.65
2023-01-03T11:09:48.667Z,60.69
2023-01-03T11:12:26.802Z,60.99
2023-01-03T11:14:56.537Z,61.79
2023-01-03T11:17:26.045Z,61.69
2023-01-03T11:19:54.103Z,62.49
2023-01-03T11:22:44.854Z,62.76
2023-01-03T11:25:39.248Z,62.79
2023-01-03T11:28:16.594Z,63.48
2023-01-03T11:31:05.865Z,62.97
2023-01-03T11:33:35.790Z,62.15
2023-01-03T11:36:40.910Z,61.86
2023-01-03T11:39:20.176Z,61.86
2023-01-03T11:42:04.110Z,62.11
2023-01-03T11:44:54.305Z,61.42
2023-01-03T11:47:31.136Z,60.76
2023-01-03T11:50:28.004Z,61.10
2023-01-03T11:52:55.306Z,61.07
2023-01-03T11:55:25.489Z,60.93
2023-01-03T11:58:13.706Z,60.71
2023-01-03T12:01:13.835Z,61.26
2023-01-03T12:04:13.482Z,61.78
2023-01-03T12:07:21.419Z,62.15
2023-01-03T12:10:28.193Z,63.13
2023-01-03T12:13:32.641Z,63.37
2023-01-03T12:16:16.743Z,63.59
2023-01-03T12:18:58.281Z,63.98
2023-01-03T12:21:36.213Z,64.02
2023-01-03T12:24:18.286Z,64.18
2023-01-03T12:26:56.325Z,63.64
2023-01-03T12:29:23.407Z,63.38
2023-01-03T12:31:56.976Z,63.73
2023-01-03T12:34:37.791Z,63.93
2023-01-03T12:37:19.022Z,63.72
2023-01-03T12:40:24.712Z,63.25
2023-01-03T12:43:16.850Z,62.91
2023-01-03T12:45:49.662Z,62.40
2023-01-03T12:48:46.121Z,62.23
2023-01-03T12:51:16.692Z,62.44
2023-01-03T12:53:51.816Z,62.51
2023-01-03T12:56:38.178Z,62.91
2023-01-03T12:59:27.365Z,62.09
2023-01-03T13:02:01.281Z,62.97
2023-01-03T13:04:28.659Z,62.82
2023-01-03T13:07:22.823Z,63.23
2023-01-03T13:10:00.748Z,63.98
2023-01-03T13:12:31.889Z,64.57
2023-01-03T13:15:02.642Z,64.10
2023-01-03T13:17:32.105Z,63.72
2023-01-03T13:20:17.747Z,63.74
2023-01-03T13:22:52.501Z,63.71
2023-01-03T13:25:33.389Z,63.86
2023-01-03T13:28:20.178Z,64.04
2023-01-03T13:30:47.880Z,64.50
2023-01-03T13:33:20.494Z,64.72
2023-01-03T13:35:47.899Z,64.83
2023-01-03T13:38:27.210Z,66.03
2023-01-03T13:41:19.049Z,66.21
2023-01-03T13:43:50.625Z,66.68
2023-01-03T13:46:19.914Z,67.34
2023-01-03T13:48:58.942Z,67.75
2023-01-03T13:51:32.080Z,68.04
2023-01-03T13:54:11.021Z,68.64
2023-01-03T13:56:44.397Z,68.74
2023-01-03T13:59:14.393Z,68.26
2023-01-03T14:01:54.086Z,68.53
2023-01-03T14:04:30.028Z,68.93
2023-01-03T14:07:21.313Z,69.13
2023-01-03T14:10:09.990Z,69.43
2023-01-03T14:12:46.390Z,70.09
2023-01-03T14:15:25.944Z,69.94
2023-01-03T14:18:01.927Z,69.91
2023-01-03T14:20:34.223Z,69.93
2023-01-03T14:23:31.313Z,70.19
2023-01-03T14:25:53.951Z,70.80
2023-01-03T14:28:33.801Z,70.94
2023-01-03T14:31:06.515Z,71.24
2023-01-03T14:33:41.448Z,71.20
2023-01-03T14:36:14.262Z,71.60
2023-01-03T14:39:01.416Z,71.96
2023-01-03T14:41:35.934Z,71.83
2023-01-03T14:44:15.157Z,71.69
2023-01-03T14:46:53.267Z,71.73
2023-01-03T14:49:32.523Z,72.09
2023-01-03T14:52:19.655Z,72.80
2023-01-03T14:54:51.035Z,72.19
2023-01-03T14:57:26.815Z,72.45
2023-01-03T14:59:57.673Z,72.20
2023-01-03T15:02:25.481Z,72.58
2023-01-03T15:04:58.645Z,72.73
2023-01-03T15:07:39.306Z,72.91
2023-01-03T15:10:17.623Z,72.83
2023-01-03T15:12:49.271Z,72.58
2023-01-03T15:15:24.845Z,73.04
2023-01-03T15:17:56.379Z,73.13
2023-01-03T15:20:44.516Z,73.17
2023-01-03T15:23:28.208Z,73.78
2023-01-03T15:25:55.456Z,74.28
2023-01-03T15:28:56.285Z,74.28
2023-01-03T15:31:37.405Z,74.80
2023-01-03T15:34:34.944Z,74.87
2023-01-03T15:37:21.958Z,74.95
2023-01-03T15:39:52.404Z,75.30
2023-01-03T15:42:56.179Z,75.16
2023-01-03T15:45:35.659Z,75.70
2023-01-03T15:48:04.975Z,75.75
2023-01-03T15:50:50.069Z,76.44
2023-01-03T15:53:28.212Z,75.95
2023-01-03T15:55:59.659Z,76.49
2023-01-03T15:58:28.700Z,76.95
2023-01-03T16:00:56.666Z,77.40
2023-01-03T16:03:25.981Z,77.01
2023-01-03T16:05:53.382Z,77.02
2023-01-03T16:08:27.582Z,77.45
2023-01-03T16:10:56.494Z,77.01
2023-01-03T16:13:25.753Z,77.03
2023-01-03T16:15:53.765Z,77.33
2023-01-03T16:18:26.882Z,77.45
2023-01-03T16:20:56.182Z,77.04
2023-01-03T16:23:28.017Z,77.09
2023-01-03T16:25:55.860Z,77.90
2023-01-03T16:28:24.559Z,78.40
2023-01-03T16:31:02.425Z,78.73
2023-01-03T16:33:33.854Z,79.01
2023-01-03T16:36:01.126Z,79.57
2023-01-03T16:38:30.113Z,79.43
2023-01-03T16:40:57.717Z,79.70
2023-01-03T16:43:26.457Z,79.69
2023-01-03T16:45:59.516Z,79.38
2023-01-03T16:48:38.099Z,79.39
2023-01-03T16:51:06.283Z,79.56
2023-01-03T16:53:37.400Z,79.18
2023-01-03T16:56:06.647Z,79.36
2023-01-03T16:58:33.623Z,79.55
2023-01-03T17:01:00.905Z,79.37
2023-01-03T17:03:28.035Z,78.18
2023-01-03T17:05:55.385Z,77.93
2023-01-03T17:08:41.454Z,77.92
2023-01-03T17:11:09.299Z,77.65
2023-01-03T17:13:41.811Z,76.95
2023-01-03T17:16:18.137Z,76.75
2023-01-03T17:18:45.782Z,76.96
2023-01-03T17:21:24.790Z,77.02
2023-01-03T17:23:55.241Z,76.97
2023-01-03T17:26:23.973Z,77.48
2023-01-03T17:28:53.805Z,76.98
2023-01-03T17:31:26.092Z,77.09
2023-01-03T17:33:53.809Z,76.99
2023-01-03T17:36:25.832Z,78.01
2023-01-03T17:38:55.072Z,78.15
2023-01-03T17:41:25.302Z,78.27
2023-01-03T17:43:53.604Z,78.84
2023-01-03T17:46:42.525Z,79.29
2023-01-03T17:49:24.419Z,79.56
2023-01-03T17:52:01.855Z,79.54
2023-01-03T17:54:33.506Z,80.06
2023-01-03T17:57:01.473Z,80.73
2023-01-03T17:59:28.767Z,81.09
2023-01-03T18:01:56.484Z,80.86
2023-01-03T18:04:38.278Z,80.50
2023-01-03T18:07:20.692Z,80.87
2023-01-03T18:09:49.252Z,80.84
2023-01-03T18:12:19.292Z,80.37
2023-01-03T18:14:46.658Z,80.28
2023-01-03T18:17:34.129Z,80.14
2023-01-03T18:20:01.959Z,80.37
2023-01-03T18:22:29.468Z,80.67
2023-01-03T18:24:57.350Z,80.25
2023-01-03T18:27:27.237Z,80.40
2023-01-03T18:29:54.374Z,80.12
2023-01-03T18:32:32.643Z,80.32
2023-01-03T18:35:00.057Z,79.81
2023-01-03T18:37:34.645Z,79.42
2023-01-03T18:40:03.488Z,79.37
2023-01-03T18:42:49.400Z,79.12
2023-01-03T18:45:16.553Z,79.12
2023-01-03T18:47:43.776Z,79.36
2023-01-03T18:50:18.927Z,79.10
2023-01-03T18:52:47.914Z,78.92
2023-01-03T18:55:18.349Z,78.95
2023-01-03T18:57:48.144Z,78.76
2023-01-03T19:00:17.069Z,78.94
2023-01-03T19:02:44.734Z,78.30
2023-01-03T19:05:12.530Z,78.76
2023-01-03T19:07:43.771Z,78.80
2023-01-03T19:10:26.148Z,77.65
2023-01-03T19:12:57.016Z,78.31
2023-01-03T19:15:28.431Z,78.28
2023-01-03T19:17:59.124Z,77.44
2023-01-03T19:20:27.318Z,77.06
2023-01-03T19:22:55.563Z,77.09
2023-01-03T19:25:30.441Z,77.13
2023-01-03T19:28:00.712Z,77.54
2023-01-03T19:30:36.969Z,77.06
2023-01-03T19:33:13.990Z,76.87
2023-01-03T19:35:43.285Z,76.75
2023-01-03T19:38:10.778Z,76.58
2023-01-03T19:40:40.172Z,76.00
2023-01-03T19:43:07.595Z,76.40
2023-01-03T19:45:37.221Z,76.79
2023-01-03T19:48:14.643Z,76.54
2023-01-03T19:50:41.835Z,76.29
2023-01-03T19:53:09.466Z,76.79
2023-01-03T19:55:41.265Z,76.67
2023-01-03T19:58:19.263Z,76.17
2023-01-03T20:00:49.436Z,75.73
2023-01-03T20:03:40.183Z,75.67
2023-01-03T20:06:11.502Z,76.04
2023-01-03T20:08:38.545Z,75.87
2023-01-03T20:11:11.789Z,76.18
2023-01-03T20:13:38.791Z,76.35
2023-01-03T20:16:06.493Z,76.51
2023-01-03T20:18:39.738Z,76.31
2023-01-03T20:21:09.737Z,76.42
2023-01-03T20:23:40.874Z,76.07
2023-01-03T20:26:22.155Z,75.85
2023-01-03T20:28:50.512Z,76.05
2023-01-03T20:31:20.602Z,75.67
2023-01-03T20:33:48.782Z,75.98
2023-01-03T20:36:23.548Z,76.09
2023-01-03T20:38:53.921Z,76.29
2023-01-03T20:41:21.456Z,76.06
2023-01-03T20:43:50.192Z,76.45
2023-01-03T20:46:21.163Z,75.92
2023-01-03T20:49:01.024Z,76.34
2023-01-03T20:51:29.293Z,76.29
2023-01-03T20:53:56.365Z,76.48
2023-01-03T20:56:26.286Z,76.27
2023-01-03T20:58:53.320Z,76.39
2023-01-03T21:01:20.622Z,76.23
2023-01-03T21:03:47.710Z,76.45
2023-01-03T21:06:22.614Z,76.24
2023-01-03T21:08:56.749Z,75.97
2023-01-03T21:11:30.626Z,76.87
2023-01-03T21:13:59.723Z,76.37
2023-01-03T21:16:41.605Z,76.60
2023-01-03T21:19:36.024Z,76.76
2023-01-03T21:22:10.301Z,76.57
2023-01-03T21:24:39.613Z,77.04
2023-01-03T21:27:08.132Z,77.14
2023-01-03T21:29:35.067Z,76.84
2023-01-03T21:32:02.319Z,76.83
2023-01-03T21:34:30.685Z,76.40
2023-01-03T21:36:57.943Z,76.63
2023-01-03T21:39:24.845Z,76.70
2023-01-03T21:42:10.569Z,76.70
2023-01-03T21:44:37.436Z,75.98
2023-01-03T21:47:04.637Z,75.69
2023-01-03T21:49:31.671Z,75.84
2023-01-03T21:51:58.830Z,75.30
2023-01-03T21:54:25.893Z,75.41
2023-01-03T21:56:53.328Z,75.45
2023-01-03T21:59:20.168Z,74.69
2023-01-03T22:02:06.869Z,74.83
2023-01-03T22:04:34.787Z,74.68
2023-01-03T22:07:02.622Z,74.23
2023-01-03T22:09:49.163Z,73.39
2023-01-03T22:12:18.032Z,73.12
2023-01-03T22:14:45.996Z,73.47
2023-01-03T22:17:13.578Z,72.46
2023-01-03T22:19:40.474Z,72.92
2023-01-03T22:22:07.722Z,73.49
2023-01-03T22:24:34.624Z,73.31
2023-01-03T22:27:01.754Z,73.45
2023-01-03T22:29:28.734Z,73.14
2023-01-03T22:31:56.061Z,72.79
2023-01-03T22:34:23.106Z,72.02
2023-01-03T22:36:50.565Z,72.61
2023-01-03T22:39:17.484Z,73.22
2023-01-03T22:41:44.637Z,72.53
2023-01-03T22:44:11.508Z,72.24
2023-01-03T22:46:39.072Z,72.55
2023-01-03T22:49:05.952Z,73.24
2023-01-03T22:51:33.182Z,73.41
2023-01-03T22:54:00.161Z,73.10
2023-01-03T22:56:27.528Z,73.42
2023-01-03T22:58:54.434Z,73.23
2023-01-03T23:01:27.521Z,73.17
2023-01-03T23:03:59.901Z,73.27
2023-01-03T23:06:29.430Z,74.06
2023-01-03T23:08:56.613Z,73.56
2023-01-03T23:11:44.258Z,73.78
2023-01-03T23:14:13.694Z,74.06
2023-01-03T23:16:41.574Z,73.65
2023-01-03T23:19:12.690Z,74.06
2023-01-03T23:21:40.257Z,73.69
2023-01-03T23:24:11.758Z,74.03
2023-01-03T23:26:38.936Z,73.93
2023-01-03T23:29:05.931Z,74.58
2023-01-03T23:31:33.215Z,73.75
2023-01-03T23:34:00.523Z,73.61
2023-01-03T23:36:28.607Z,74.36
2023-01-03T23:38:56.338Z,74.50
2023-01-03T23:41:23.700Z,74.00
2023-01-03T23:43:51.392Z,74.03
2023-01-03T23:46:21.690Z,74.11
2023-01-03T23:48:53.438Z,74.38
2023-01-03T23:51:20.601Z,74.76
2023-01-03T23:53:47.486Z,74.87
2023-01-03T23:56:17.148Z,74.97
2023-01-03T23:58:44.760Z,75.45
